Time;durP1;ratioP1;P1;durP2;ratioP2;P2;SDS_P1;SDS_P2;PMS_P1;PMS_P2;Temp;Humidity;BMP_temperature;BMP_pressure;BME280_temperature;BME280_humidity;BME280_pressure;Samples;Min_cycle;Max_cycle;Signal;HPM_P1;HPM_P2
2023/05/11 00:00:32;;;;;;;24.43;17.43;;;;;;;13.01;100.00;100838.50;4961555;29;20425;-77
2023/05/11 00:03:04;;;;;;;20.77;17.00;;;;;;;12.98;100.00;100828.06;4968029;28;20427;-76
2023/05/11 00:05:33;;;;;;;24.57;17.10;;;;;;;13.00;100.00;100820.53;4965740;29;20439;-78
2023/05/11 00:08:02;;;;;;;27.43;18.47;;;;;;;13.09;100.00;100824.66;4953520;29;20431;-78
2023/05/11 00:10:31;;;;;;;18.70;16.43;;;;;;;13.13;100.00;100823.19;4950451;29;20440;-77
2023/05/11 00:13:00;;;;;;;20.57;15.27;;;;;;;13.09;100.00;100819.22;4951681;29;20912;-76
2023/05/11 00:15:30;;;;;;;18.33;16.37;;;;;;;13.07;100.00;100822.16;4953502;29;20963;-78
2023/05/11 00:17:58;;;;;;;26.93;16.40;;;;;;;13.09;100.00;100824.66;4966165;28;20450;-77
2023/05/11 00:20:29;;;;;;;18.03;15.17;;;;;;;13.18;100.00;100820.66;4975906;28;20415;-77
2023/05/11 00:22:58;;;;;;;17.10;14.47;;;;;;;13.21;100.00;100822.09;4972369;28;20414;-78
2023/05/11 00:25:27;;;;;;;19.37;15.67;;;;;;;13.05;100.00;100818.84;4972349;28;20481;-77
2023/05/11 00:27:56;;;;;;;20.40;15.63;;;;;;;12.97;100.00;100810.13;4977203;28;20439;-78
2023/05/11 00:30:25;;;;;;;19.27;15.10;;;;;;;12.82;100.00;100813.16;4964085;28;20546;-78
2023/05/11 00:32:54;;;;;;;23.57;16.10;;;;;;;12.72;100.00;100810.09;4963288;29;20838;-77
2023/05/11 00:35:23;;;;;;;17.90;16.00;;;;;;;12.68;100.00;100813.44;4954037;29;20420;-78
2023/05/11 00:37:53;;;;;;;19.40;17.50;;;;;;;12.69;100.00;100815.09;4952453;28;20519;-78
2023/05/11 00:40:22;;;;;;;17.47;15.43;;;;;;;12.68;100.00;100814.28;4956843;29;20441;-77
2023/05/11 00:42:51;;;;;;;17.93;16.00;;;;;;;12.58;100.00;100803.06;4966217;28;20450;-78
2023/05/11 00:45:20;;;;;;;19.67;17.40;;;;;;;12.54;100.00;100810.78;4974447;29;20450;-77
2023/05/11 00:47:49;;;;;;;18.60;16.60;;;;;;;12.50;100.00;100820.41;4979687;28;20439;-77
2023/05/11 00:50:19;;;;;;;19.13;16.90;;;;;;;12.48;100.00;100817.09;4960082;28;20534;-78
2023/05/11 00:52:48;;;;;;;20.80;17.53;;;;;;;12.43;100.00;100816.94;4954663;28;20469;-77
2023/05/11 00:55:20;;;;;;;18.27;16.03;;;;;;;12.54;100.00;100820.81;4950390;28;20426;-77
2023/05/11 00:57:49;;;;;;;23.77;18.80;;;;;;;12.71;100.00;100824.69;4955687;29;20429;-77
2023/05/11 01:00:18;;;;;;;23.60;18.27;;;;;;;12.84;100.00;100819.19;4967427;28;20411;-78
2023/05/11 01:02:48;;;;;;;18.17;16.27;;;;;;;12.85;100.00;100818.13;4956059;29;20425;-78
2023/05/11 01:05:17;;;;;;;18.00;16.10;;;;;;;12.71;100.00;100818.44;4985645;28;20536;-77
2023/05/11 01:07:59;;;;;;;21.40;16.87;;;;;;;12.72;100.00;100814.69;4960174;28;20465;-77
2023/05/11 01:10:37;;;;;;;24.40;16.50;;;;;;;12.60;100.00;100820.78;4981628;28;20462;-77
2023/05/11 01:13:16;;;;;;;16.73;14.63;;;;;;;12.60;100.00;100820.78;4950128;29;20409;-78
2023/05/11 01:15:51;;;;;;;18.27;16.37;;;;;;;12.39;100.00;100821.09;4945266;29;20847;-78
2023/05/11 01:18:30;;;;;;;18.77;16.40;;;;;;;12.24;100.00;100820.56;4959214;28;20470;-77
2023/05/11 01:21:05;;;;;;;19.50;15.07;;;;;;;12.04;100.00;100825.22;4959725;29;20566;-78
2023/05/11 01:23:58;;;;;;;17.33;15.07;;;;;;;11.98;100.00;100826.91;4963769;29;20949;-77
2023/05/11 01:26:46;;;;;;;20.77;18.03;;;;;;;12.03;100.00;100834.38;4964859;29;20558;-78
2023/05/11 01:29:50;;;;;;;16.70;14.57;;;;;;;12.01;100.00;100829.16;4957228;28;20427;-78
2023/05/11 01:32:25;;;;;;;16.80;15.00;;;;;;;12.00;100.00;100829.41;4987992;28;20444;-77
2023/05/11 01:35:02;;;;;;;18.93;17.10;;;;;;;11.92;100.00;100837.75;4952034;29;20526;-78
2023/05/11 01:37:33;;;;;;;19.17;17.07;;;;;;;12.00;100.00;100832.94;4971955;28;20494;-78
2023/05/11 01:40:07;;;;;;;18.60;16.50;;;;;;;12.07;100.00;100828.31;4957253;29;20461;-78
2023/05/11 01:42:40;;;;;;;19.17;16.20;;;;;;;12.07;100.00;100835.63;4960695;28;20435;-78
2023/05/11 01:45:12;;;;;;;21.70;15.70;;;;;;;12.10;100.00;100832.50;4973102;29;20466;-78
2023/05/11 01:47:45;;;;;;;20.60;17.40;;;;;;;12.11;100.00;100842.28;4972131;29;20482;-77
2023/05/11 01:50:16;;;;;;;18.77;16.57;;;;;;;12.03;100.00;100840.66;4961954;29;20415;-77
2023/05/11 01:52:49;;;;;;;18.03;16.20;;;;;;;12.09;100.00;100842.53;4971412;29;20421;-77
2023/05/11 01:55:21;;;;;;;20.70;16.40;;;;;;;12.17;100.00;100844.16;4967606;29;20429;-78
2023/05/11 01:57:54;;;;;;;20.70;17.77;;;;;;;12.07;100.00;100850.03;4977302;28;20474;-78
2023/05/11 02:00:24;;;;;;;22.90;17.23;;;;;;;12.11;100.00;100845.00;4973287;29;20478;-78
2023/05/11 02:02:56;;;;;;;19.23;16.17;;;;;;;12.10;100.00;100846.88;4974678;28;20442;-78
2023/05/11 02:05:26;;;;;;;21.27;19.07;;;;;;;12.10;100.00;100846.06;4966963;29;20560;-78
2023/05/11 02:07:58;;;;;;;19.77;17.73;;;;;;;12.09;100.00;100855.25;4972921;29;20441;-77
2023/05/11 02:10:28;;;;;;;22.13;19.97;;;;;;;12.01;100.00;100852.75;4975015;28;20439;-77
2023/05/11 02:12:58;;;;;;;19.77;17.70;;;;;;;11.87;100.00;100861.94;4976662;29;20410;-78
2023/05/11 02:15:28;;;;;;;23.23;18.90;;;;;;;11.83;100.00;100855.28;4975541;28;20479;-77
2023/05/11 02:18:00;;;;;;;23.00;19.87;;;;;;;11.84;100.00;100857.78;4960686;29;20441;-77
2023/05/11 02:20:29;;;;;;;23.77;18.77;;;;;;;11.83;100.00;100855.28;4953606;28;20561;-77
2023/05/11 02:23:00;;;;;;;21.53;19.33;;;;;;;11.82;100.00;100862.59;4954774;29;20632;-78
2023/05/11 02:25:31;;;;;;;22.37;19.50;;;;;;;11.84;100.00;100862.38;4956211;28;20942;-78
2023/05/11 02:28:00;;;;;;;25.63;19.40;;;;;;;11.80;100.00;100855.72;4953711;28;20441;-78
2023/05/11 02:30:32;;;;;;;20.03;18.00;;;;;;;11.86;100.00;100865.72;4953047;28;20421;-79
2023/05/11 02:33:06;;;;;;;20.97;18.80;;;;;;;11.93;100.00;100863.81;4953249;28;20453;-78
2023/05/11 02:35:43;;;;;;;24.27;19.03;;;;;;;11.91;100.00;100863.22;4953592;29;20837;-78
2023/05/11 02:38:15;;;;;;;20.53;18.40;;;;;;;11.87;100.00;100870.94;4953624;29;20419;-78
2023/05/11 02:40:48;;;;;;;23.37;19.40;;;;;;;11.86;100.00;100860.31;4955226;28;20474;-77
2023/05/11 02:43:24;;;;;;;22.70;19.97;;;;;;;11.85;100.00;100864.06;4950921;28;20452;-79
2023/05/11 02:46:03;;;;;;;24.50;20.10;;;;;;;11.89;100.00;100870.72;4962258;28;20462;-77
2023/05/11 02:48:40;;;;;;;21.47;19.17;;;;;;;11.91;100.00;100868.66;4950787;29;20435;-78
2023/05/11 02:51:12;;;;;;;19.47;17.53;;;;;;;11.80;100.00;100872.00;4957164;29;20466;-78
2023/05/11 02:53:47;;;;;;;23.30;18.87;;;;;;;11.64;100.00;100867.78;4967435;28;20430;-77
2023/05/11 02:56:18;;;;;;;26.13;21.73;;;;;;;11.54;100.00;100870.09;4966716;29;20450;-77
2023/05/11 02:58:47;;;;;;;21.63;19.20;;;;;;;11.39;100.00;100870.31;4954604;29;20444;-77
2023/05/11 03:01:23;;;;;;;21.20;19.00;;;;;;;11.30;100.00;100871.56;4982907;28;20477;-78
2023/05/11 03:03:56;;;;;;;21.07;18.83;;;;;;;11.31;100.00;100878.63;4966274;28;20452;-77
2023/05/11 03:06:27;;;;;;;23.27;19.90;;;;;;;11.36;100.00;100875.31;4956323;29;20441;-79
2023/05/11 03:08:57;;;;;;;22.37;20.07;;;;;;;11.39;100.00;100869.47;4953118;29;20542;-77
2023/05/11 03:11:27;;;;;;;25.60;20.30;;;;;;;11.43;100.00;100871.53;4955582;28;20580;-77
2023/05/11 03:13:57;;;;;;;24.37;20.40;;;;;;;11.52;100.00;100870.28;4957339;29;20455;-77
2023/05/11 03:16:27;;;;;;;23.70;21.37;;;;;;;11.53;100.00;100871.97;4958054;29;20936;-76
2023/05/11 03:19:00;;;;;;;21.07;18.77;;;;;;;11.49;100.00;100865.31;4959406;29;20424;-77
2023/05/11 03:21:31;;;;;;;23.90;20.60;;;;;;;11.46;100.00;100868.44;4959572;29;20746;-78
2023/05/11 03:24:01;;;;;;;23.00;19.43;;;;;;;11.50;100.00;100866.97;4956646;29;20865;-79
2023/05/11 03:26:34;;;;;;;22.57;19.83;;;;;;;11.44;100.00;100864.25;4960757;29;20455;-78
2023/05/11 03:29:04;;;;;;;21.60;19.30;;;;;;;11.45;100.00;100874.06;4969336;29;20442;-77
2023/05/11 03:31:33;;;;;;;23.83;18.20;;;;;;;11.41;100.00;100870.09;4970312;29;20401;-77
2023/05/11 03:34:04;;;;;;;28.30;20.20;;;;;;;11.38;100.00;100878.63;4955167;29;20868;-78
2023/05/11 03:36:40;;;;;;;20.90;18.77;;;;;;;11.46;100.00;100871.16;4944723;29;20893;-78
2023/05/11 03:39:11;;;;;;;21.57;18.90;;;;;;;11.56;100.00;100868.84;4939810;29;20423;-79
2023/05/11 03:41:41;;;;;;;24.20;18.60;;;;;;;11.77;100.00;100878.66;4938422;29;20417;-78
2023/05/11 03:44:13;;;;;;;21.83;18.60;;;;;;;12.30;100.00;100879.38;4945301;28;20426;-78
2023/05/11 03:46:46;;;;;;;19.53;17.43;;;;;;;12.93;100.00;100871.34;4956396;28;20482;-78
2023/05/11 03:49:18;;;;;;;20.13;18.00;;;;;;;13.67;96.78;100876.91;4954627;29;20409;-79
2023/05/11 03:51:48;;;;;;;19.47;16.50;;;;;;;14.43;91.35;100871.09;4953300;28;20779;-78
2023/05/11 03:54:18;;;;;;;17.73;16.03;;;;;;;14.89;84.28;100870.50;4934849;29;20425;-78
2023/05/11 03:56:47;;;;;;;17.40;15.03;;;;;;;14.98;82.51;100888.19;4958510;28;20444;-78
2023/05/11 03:59:16;;;;;;;18.30;14.97;;;;;;;15.38;80.25;100882.16;4951164;28;20436;-77
2023/05/11 04:01:46;;;;;;;15.93;14.33;;;;;;;15.66;78.45;100871.44;4951047;29;20426;-77
2023/05/11 04:04:17;;;;;;;24.93;14.90;;;;;;;16.20;76.32;100885.78;4970855;28;20503;-77
2023/05/11 04:06:46;;;;;;;15.37;13.87;;;;;;;16.66;71.84;100880.25;4939506;29;20472;-78
2023/05/11 04:09:25;;;;;;;15.90;14.20;;;;;;;17.29;69.68;100879.25;4950446;28;20504;-77
2023/05/11 04:11:54;;;;;;;17.17;15.37;;;;;;;17.49;67.79;100881.50;4957447;28;20433;-77
2023/05/11 04:14:23;;;;;;;16.30;14.57;;;;;;;17.15;68.63;100877.91;4958314;29;20906;-77
2023/05/11 04:16:52;;;;;;;15.30;13.80;;;;;;;17.42;66.81;100881.69;4958130;28;20454;-78
2023/05/11 04:19:23;;;;;;;14.47;13.17;;;;;;;17.79;64.88;100877.41;4965503;28;20445;-77
2023/05/11 04:21:53;;;;;;;15.43;13.67;;;;;;;17.81;64.18;100886.19;4947878;29;20839;-77
2023/05/11 04:24:22;;;;;;;15.20;13.60;;;;;;;18.27;62.03;100883.28;4946052;29;20428;-78
2023/05/11 04:26:56;;;;;;;16.47;13.10;;;;;;;18.69;59.77;100891.84;4960557;28;20457;-78
2023/05/11 04:29:26;;;;;;;15.90;14.30;;;;;;;18.81;59.48;100887.03;4966865;29;20407;-77
2023/05/11 04:31:55;;;;;;;14.33;12.27;;;;;;;18.96;57.76;100889.94;4961123;28;20436;-78
2023/05/11 04:34:28;;;;;;;13.73;12.53;;;;;;;19.44;56.15;100889.91;4951711;29;21046;-78
2023/05/11 04:36:57;;;;;;;12.30;10.63;;;;;;;19.79;54.96;100894.06;4957572;29;20520;-78
2023/05/11 04:39:27;;;;;;;13.30;11.67;;;;;;;20.07;53.62;100890.94;4956434;28;20517;-77
2023/05/11 04:41:56;;;;;;;21.30;18.07;;;;;;;19.96;53.78;100891.97;4960434;28;20475;-77
2023/05/11 04:44:25;;;;;;;14.33;12.77;;;;;;;20.11;53.24;100889.31;4966630;28;20433;-77
2023/05/11 04:47:07;;;;;;;16.07;12.03;;;;;;;20.32;50.65;100890.31;4981135;23;20444;-79
2023/05/11 04:49:46;;;;;;;11.57;9.87;;;;;;;20.78;49.73;100900.41;4938905;29;20531;-79
2023/05/11 04:52:34;;;;;;;11.93;10.50;;;;;;;20.79;49.40;100907.56;4939622;29;20423;-78
2023/05/11 04:55:10;;;;;;;10.50;9.30;;;;;;;21.53;47.26;100909.16;4958006;29;20421;-78
2023/05/11 05:02:51;;;;;;;;;;;;;;;;;;;;;
2023/05/11 05:06:02;;;;;;;9.40;8.50;;;;;;;21.46;45.14;100914.06;4945418;29;20437;-78
2023/05/11 05:09:28;;;;;;;8.87;8.10;;;;;;;21.07;45.32;100913.69;4942054;29;20442;-79
2023/05/11 05:13:04;;;;;;;8.40;7.60;;;;;;;21.95;43.28;100909.72;4947230;29;20421;-79
2023/05/11 05:16:53;;;;;;;8.93;8.03;;;;;;;22.36;42.89;100913.22;4948583;29;20451;-79
2023/05/11 05:20:02;;;;;;;;;;;;;;;;;;;;;
2023/05/11 05:27:15;;;;;;;8.80;8.10;;;;;;;17.77;52.86;100915.13;4939883;29;20451;-79
2023/05/11 05:30:19;;;;;;;8.87;8.03;;;;;;;16.85;56.60;100917.25;4971010;28;20418;-78
2023/05/11 05:33:41;;;;;;;9.60;8.70;;;;;;;16.09;59.04;100910.13;4937962;29;20448;-80
2023/05/11 05:36:22;;;;;;;9.13;8.33;;;;;;;16.00;59.51;100919.75;4941557;29;20455;-80
2023/05/11 05:39:30;;;;;;;9.27;8.40;;;;;;;15.99;60.08;100917.25;4939017;29;20453;-79
2023/05/11 05:43:00;;;;;;;10.07;9.17;;;;;;;16.11;59.93;100917.25;4942424;29;20490;-79
2023/05/11 05:46:35;;;;;;;13.80;9.27;;;;;;;16.18;59.26;100934.31;4978761;28;20445;-77
2023/05/11 05:53:07;;;;;;;8.70;7.80;;;;;;;16.32;58.70;100941.19;4949959;29;20483;-79
2023/05/11 05:55:38;;;;;;;10.43;7.20;;;;;;;16.35;59.24;100943.47;4975254;28;20413;-79
2023/05/11 05:58:12;;;;;;;7.47;6.70;;;;;;;16.41;58.52;100948.78;4972656;28;20503;-77
2023/05/11 06:00:41;;;;;;;9.73;7.30;;;;;;;16.41;59.51;100945.25;4959216;28;20771;-78
2023/05/11 06:03:12;;;;;;;9.43;8.50;;;;;;;16.60;58.13;100946.81;4957780;29;20428;-77
2023/05/11 06:05:44;;;;;;;10.63;7.73;;;;;;;16.59;57.99;100957.97;4937127;29;20485;-78
2023/05/11 06:08:21;;;;;;;8.00;7.30;;;;;;;16.62;58.11;100957.47;4941766;29;20434;-78
2023/05/11 06:11:16;;;;;;;8.83;8.03;;;;;;;16.65;57.59;100952.38;4945222;29;20496;-79
2023/05/11 06:13:50;;;;;;;8.40;7.57;;;;;;;16.58;58.00;100950.81;4973620;28;20509;-78
2023/05/11 06:16:25;;;;;;;7.70;7.00;;;;;;;16.73;57.67;100953.91;4954211;29;20458;-78
2023/05/11 06:19:12;;;;;;;9.87;6.77;;;;;;;16.63;57.96;100954.50;4935587;29;20457;-78
2023/05/11 06:21:46;;;;;;;9.30;8.27;;;;;;;16.64;57.53;100958.06;4944664;29;20848;-79
2023/05/11 06:24:16;;;;;;;8.07;7.20;;;;;;;16.69;57.33;100953.56;4947424;29;20456;-78
2023/05/11 06:26:46;;;;;;;8.70;7.20;;;;;;;16.77;56.95;100955.91;4959543;29;20428;-78
2023/05/11 06:29:21;;;;;;;10.00;7.70;;;;;;;16.88;57.42;100955.03;4933636;29;20972;-77
2023/05/11 06:31:53;;;;;;;9.37;6.40;;;;;;;17.15;56.50;100952.56;4941550;29;20449;-77
2023/05/11 06:35:07;;;;;;;8.77;6.93;;;;;;;17.45;56.08;100955.03;4941813;29;20422;-78
2023/05/11 06:37:52;;;;;;;7.37;6.67;;;;;;;17.72;54.82;100953.38;4963651;28;20436;-79
2023/05/11 06:40:30;;;;;;;10.53;6.73;;;;;;;17.92;54.52;100946.56;4940921;29;20440;-77
2023/05/11 06:43:01;;;;;;;7.20;6.50;;;;;;;17.73;53.08;100951.47;4957396;28;20475;-79
2023/05/11 06:45:52;;;;;;;6.87;6.27;;;;;;;17.80;53.52;100955.72;4962102;28;20436;-77
2023/05/11 06:48:30;;;;;;;9.03;7.03;;;;;;;17.96;53.30;100954.03;4943728;29;20509;-77
2023/05/11 06:51:02;;;;;;;6.27;5.67;;;;;;;18.08;53.40;100949.31;4968707;28;20422;-78
2023/05/11 06:53:31;;;;;;;7.00;6.13;;;;;;;18.30;52.51;100952.09;4977082;28;20443;-78
2023/05/11 06:56:00;;;;;;;7.70;6.63;;;;;;;18.44;51.96;100947.94;4956153;28;20495;-77
2023/05/11 06:58:31;;;;;;;7.40;6.07;;;;;;;18.55;51.14;100947.00;4956505;28;20469;-77
2023/05/11 07:01:04;;;;;;;10.10;6.63;;;;;;;18.60;50.74;100949.81;4961862;29;20421;-78
2023/05/11 07:03:34;;;;;;;7.87;6.27;;;;;;;18.76;50.66;100953.59;4969783;28;20447;-80
2023/05/11 07:06:03;;;;;;;7.10;6.40;;;;;;;18.97;49.88;100962.91;4967780;28;20446;-78
2023/05/11 07:08:32;;;;;;;6.60;5.43;;;;;;;18.44;50.54;100961.63;4968961;28;20470;-78
2023/05/11 07:11:02;;;;;;;6.33;5.73;;;;;;;18.64;51.00;100959.19;4965758;28;20533;-77
2023/05/11 07:13:31;;;;;;;10.30;5.70;;;;;;;18.85;50.49;100959.44;4966341;29;20444;-78
2023/05/11 07:16:02;;;;;;;5.90;5.30;;;;;;;19.07;50.29;100954.81;4945327;29;20445;-78
2023/05/11 07:18:31;;;;;;;8.53;5.63;;;;;;;19.21;49.07;100957.97;4944270;29;20457;-77
2023/05/11 07:21:01;;;;;;;5.57;5.07;;;;;;;19.04;49.10;100958.03;4945428;29;20855;-77
2023/05/11 07:23:30;;;;;;;6.03;5.53;;;;;;;18.83;49.98;100959.69;4943608;29;20433;-77
2023/05/11 07:26:00;;;;;;;6.47;5.80;;;;;;;18.84;49.72;100961.38;4937839;29;20440;-78
2023/05/11 07:28:30;;;;;;;7.20;5.40;;;;;;;19.14;49.42;100955.41;4940570;29;20964;-76
2023/05/11 07:30:59;;;;;;;6.80;5.27;;;;;;;19.50;48.72;100960.25;4936653;29;20432;-79
2023/05/11 07:33:30;;;;;;;5.07;4.67;;;;;;;19.47;47.55;100954.41;4945882;29;20432;-79
2023/05/11 07:36:00;;;;;;;11.63;10.37;;;;;;;19.56;47.74;100957.53;4939182;29;20417;-79
2023/05/11 07:38:29;;;;;;;11.67;8.50;;;;;;;19.67;47.35;100964.78;4949787;29;20488;-77
2023/05/11 07:40:58;;;;;;;8.23;7.40;;;;;;;19.72;47.05;100957.41;4946776;29;20799;-78
2023/05/11 07:43:27;;;;;;;9.20;6.50;;;;;;;19.83;47.03;100958.34;4946180;29;20513;-78
2023/05/11 07:45:56;;;;;;;6.50;5.90;;;;;;;19.82;45.80;100953.94;4944123;29;20450;-78
2023/05/11 07:48:25;;;;;;;5.87;5.27;;;;;;;19.86;46.09;100952.31;4945057;29;20489;-78
2023/05/11 07:50:56;;;;;;;7.60;4.97;;;;;;;19.75;46.60;100956.06;4948868;29;20468;-78
2023/05/11 07:53:26;;;;;;;6.20;5.40;;;;;;;19.89;45.54;100952.63;4941362;29;20433;-78
2023/05/11 07:55:59;;;;;;;9.90;4.63;;;;;;;20.13;45.45;100953.09;4953540;29;20886;-78
2023/05/11 07:58:28;;;;;;;4.87;4.37;;;;;;;20.30;45.43;100951.03;4945978;29;20559;-78
2023/05/11 08:00:58;;;;;;;6.23;5.03;;;;;;;20.55;45.59;100947.59;4945614;29;20477;-79
2023/05/11 08:03:27;;;;;;;5.87;5.30;;;;;;;20.56;45.20;100948.44;4944193;29;20988;-78
2023/05/11 08:05:58;;;;;;;5.87;5.27;;;;;;;20.56;45.07;100956.69;4945993;29;20454;-78
2023/05/11 08:08:28;;;;;;;6.90;5.03;;;;;;;20.63;45.01;100951.75;4944146;29;20463;-78
2023/05/11 08:10:58;;;;;;;5.30;4.80;;;;;;;20.61;44.58;100951.22;4951932;29;20432;-78
2023/05/11 08:13:27;;;;;;;5.03;4.63;;;;;;;20.27;43.86;100951.53;4951231;29;20829;-78
2023/05/11 08:15:56;;;;;;;5.27;4.87;;;;;;;20.28;44.17;100944.13;4947644;29;20453;-79
2023/05/11 08:18:26;;;;;;;4.30;3.90;;;;;;;20.38;43.91;100953.25;4948332;29;20457;-78
2023/05/11 08:20:57;;;;;;;5.47;4.93;;;;;;;20.57;43.60;100952.84;4943128;29;20735;-79
2023/05/11 08:23:26;;;;;;;5.20;4.53;;;;;;;20.70;43.26;100952.34;4945965;29;20572;-80
2023/05/11 08:25:56;;;;;;;7.70;4.17;;;;;;;20.48;43.58;100957.19;4937468;29;20520;-78
2023/05/11 08:28:25;;;;;;;4.23;3.83;;;;;;;20.57;43.46;100950.94;4941284;29;20462;-80
2023/05/11 08:30:55;;;;;;;5.10;4.67;;;;;;;20.76;42.99;100952.13;4940216;29;20433;-77
2023/05/11 08:33:26;;;;;;;14.30;3.97;;;;;;;20.77;43.27;100952.91;4947701;29;20459;-79
2023/05/11 08:36:00;;;;;;;6.90;4.10;;;;;;;20.85;43.43;100952.44;4945145;29;20429;-80
2023/05/11 08:38:29;;;;;;;8.20;4.97;;;;;;;21.01;42.65;100956.06;4938658;29;20442;-78
2023/05/11 08:41:01;;;;;;;4.70;4.30;;;;;;;21.09;42.53;100950.88;4942373;29;20522;-78
2023/05/11 08:43:30;;;;;;;5.77;5.20;;;;;;;21.27;42.47;100954.22;4945002;29;20473;-78
2023/05/11 08:46:07;;;;;;;5.90;4.40;;;;;;;21.24;41.77;100950.94;4944771;29;20501;-78
2023/05/11 08:48:39;;;;;;;4.50;3.67;;;;;;;21.13;42.24;100953.88;4940086;29;20459;-78
2023/05/11 08:51:10;;;;;;;5.80;4.13;;;;;;;21.00;42.13;100955.25;4942807;29;20446;-77
2023/05/11 08:53:39;;;;;;;5.63;4.00;;;;;;;21.15;42.10;100949.81;4949230;29;20429;-78
2023/05/11 08:56:10;;;;;;;6.97;4.60;;;;;;;21.26;41.80;100945.16;4951564;29;20451;-79
2023/05/11 08:58:41;;;;;;;4.73;4.33;;;;;;;21.15;41.68;100955.31;4943629;29;20472;-80
2023/05/11 09:01:12;;;;;;;5.93;4.50;;;;;;;21.53;41.54;100940.25;4942895;29;20878;-78
2023/05/11 09:03:43;;;;;;;4.83;4.10;;;;;;;21.57;40.11;100951.53;4941075;29;20464;-80
2023/05/11 09:06:14;;;;;;;6.93;4.47;;;;;;;21.67;40.77;100940.53;4941704;29;20435;-78
2023/05/11 09:08:44;;;;;;;5.20;4.20;;;;;;;21.68;40.33;100945.78;4944381;29;20459;-80
2023/05/11 09:11:14;;;;;;;4.27;3.80;;;;;;;21.67;39.82;100948.81;4950253;29;20436;-78
2023/05/11 09:13:43;;;;;;;5.60;5.03;;;;;;;21.84;40.17;100943.00;4947968;29;20429;-78
2023/05/11 09:16:14;;;;;;;4.43;4.00;;;;;;;22.05;39.23;100940.00;4945246;29;20622;-78
2023/05/11 09:19:04;;;;;;;5.00;4.07;;;;;;;22.27;39.86;100931.41;4941082;29;20473;-78
2023/05/11 09:21:34;;;;;;;4.17;3.77;;;;;;;22.43;38.57;100944.06;4940481;29;20465;-77
2023/05/11 09:24:04;;;;;;;6.60;4.20;;;;;;;22.52;38.32;100930.53;4941887;29;20540;-78
2023/05/11 09:26:36;;;;;;;7.07;3.90;;;;;;;22.48;37.64;100937.72;4948420;29;20433;-78
2023/05/11 09:29:05;;;;;;;5.10;3.90;;;;;;;22.31;37.72;100928.97;4953685;29;20453;-78
2023/05/11 09:31:40;;;;;;;4.27;3.50;;;;;;;22.17;37.44;100938.91;4951084;29;20439;-77
2023/05/11 09:34:13;;;;;;;5.10;3.40;;;;;;;22.36;37.73;100935.28;4950604;29;20799;-79
2023/05/11 09:36:45;;;;;;;4.20;3.90;;;;;;;22.42;37.45;100931.38;4939506;29;20948;-79
2023/05/11 09:39:15;;;;;;;4.10;3.70;;;;;;;22.74;36.91;100939.34;4942800;28;20476;-79
2023/05/11 09:42:18;;;;;;;4.00;3.60;;;;;;;22.98;36.73;100933.16;4940108;29;20471;-79
2023/05/11 09:44:48;;;;;;;6.47;3.83;;;;;;;22.96;36.04;100941.72;4943745;29;20443;-77
2023/05/11 09:47:19;;;;;;;8.47;3.93;;;;;;;22.56;36.14;100937.13;4940663;29;20512;-79
2023/05/11 09:49:49;;;;;;;9.90;4.90;;;;;;;22.84;36.13;100939.28;4943912;29;20513;-78
2023/05/11 09:52:20;;;;;;;12.23;4.67;;;;;;;23.05;35.67;100947.44;4944004;29;20840;-78
2023/05/11 09:54:51;;;;;;;5.23;3.67;;;;;;;23.06;35.96;100932.56;4938383;29;20426;-77
2023/05/11 09:57:25;;;;;;;10.97;4.27;;;;;;;23.21;35.37;100932.47;4937295;29;20457;-78
2023/05/11 09:59:56;;;;;;;7.80;4.27;;;;;;;23.47;34.88;100927.66;4941667;29;20456;-78
2023/05/11 10:02:26;;;;;;;6.70;3.80;;;;;;;23.65;35.05;100933.31;4938661;29;20476;-78
2023/05/11 10:04:57;;;;;;;11.53;4.03;;;;;;;24.14;34.23;100926.81;4937895;29;20524;-78
2023/05/11 10:07:30;;;;;;;3.40;3.00;;;;;;;24.46;33.82;100938.09;4939362;29;20562;-78
2023/05/11 10:10:01;;;;;;;3.70;3.10;;;;;;;24.79;33.43;100933.56;4938568;29;20544;-78
2023/05/11 10:12:32;;;;;;;5.13;4.37;;;;;;;25.01;32.95;100933.03;4965064;28;20460;-77
2023/05/11 10:15:04;;;;;;;4.40;3.93;;;;;;;25.07;31.65;100931.88;4942807;29;20519;-79
2023/05/11 10:17:34;;;;;;;3.43;3.00;;;;;;;24.77;32.44;100929.44;4938454;29;20991;-78
2023/05/11 10:20:05;;;;;;;6.20;3.70;;;;;;;24.68;31.79;100930.13;4945942;29;20439;-79
2023/05/11 10:22:39;;;;;;;4.30;3.13;;;;;;;23.98;32.70;100925.28;4933412;29;20517;-78
2023/05/11 10:25:13;;;;;;;3.93;3.07;;;;;;;23.65;32.99;100916.72;4941657;29;20468;-79
2023/05/11 10:27:43;;;;;;;5.33;3.63;;;;;;;23.50;33.27;100910.50;4941244;29;20544;-78
2023/05/11 10:30:13;;;;;;;6.67;3.10;;;;;;;23.86;33.47;100933.16;4940845;29;20445;-78
2023/05/11 10:32:44;;;;;;;4.77;4.30;;;;;;;23.90;32.91;100923.16;4939069;29;20540;-77
2023/05/11 10:35:13;;;;;;;3.90;3.20;;;;;;;24.56;32.70;100915.84;4938297;29;20525;-78
2023/05/11 10:37:46;;;;;;;4.83;3.93;;;;;;;24.26;32.63;100924.47;4936797;29;20456;-78
2023/05/11 10:40:15;;;;;;;4.00;3.60;;;;;;;24.06;33.20;100916.38;4940038;29;20500;-77
2023/05/11 10:43:21;;;;;;;6.00;3.93;;;;;;;23.78;33.09;100921.59;4936040;29;20459;-77
2023/05/11 10:45:58;;;;;;;5.27;3.47;;;;;;;23.71;33.98;100914.75;4937481;29;20440;-77
2023/05/11 10:48:52;;;;;;;4.00;3.67;;;;;;;24.13;33.55;100917.69;5070311;23;20491;-68
2023/05/11 10:51:35;;;;;;;4.13;3.50;;;;;;;24.25;33.07;100922.88;5972982;23;20403;-68
2023/05/11 10:54:27;;;;;;;4.40;4.00;;;;;;;23.66;33.86;100918.38;5963390;23;20485;-67
2023/05/11 10:57:13;;;;;;;5.77;3.80;;;;;;;23.48;34.18;100916.28;5971533;23;20789;-66
2023/05/11 11:00:30;;;;;;;4.17;3.60;;;;;;;23.52;34.03;100911.88;5971219;23;20829;-67
2023/05/11 11:03:08;;;;;;;6.30;3.97;;;;;;;23.35;34.43;100922.44;5968893;23;20493;-68
2023/05/11 11:05:38;;;;;;;4.10;3.70;;;;;;;23.57;34.22;100919.28;5970177;23;20472;-67
2023/05/11 11:08:08;;;;;;;3.90;3.50;;;;;;;23.72;32.79;100928.25;5974939;24;20463;-69
2023/05/11 11:10:42;;;;;;;5.30;3.70;;;;;;;23.89;32.84;100916.81;5974862;24;20426;-68
2023/05/11 11:13:13;;;;;;;4.73;3.40;;;;;;;24.39;32.70;100923.81;5976033;23;20920;-68
2023/05/11 11:16:10;;;;;;;3.87;3.33;;;;;;;24.46;32.21;100926.22;5968278;24;20431;-68
2023/05/11 11:18:41;;;;;;;4.40;3.20;;;;;;;23.91;32.90;100925.66;5951980;23;20444;-67
2023/05/11 11:21:14;;;;;;;11.03;3.37;;;;;;;23.97;33.00;100920.88;5968254;23;20431;-65
2023/05/11 11:23:50;;;;;;;6.10;4.00;;;;;;;23.20;33.58;100919.78;5971985;23;20867;-67
2023/05/11 11:26:46;;;;;;;4.10;3.30;;;;;;;23.09;34.01;100918.22;5978276;23;20695;-67
2023/05/11 11:29:15;;;;;;;5.60;3.40;;;;;;;23.31;33.92;100915.84;5978645;23;20415;-67
2023/05/11 11:31:45;;;;;;;4.40;4.00;;;;;;;23.48;33.59;100912.75;5975929;23;20415;-66
2023/05/11 11:34:35;;;;;;;5.33;3.83;;;;;;;23.25;33.85;100911.47;5976962;23;20435;-66
2023/05/11 11:37:07;;;;;;;4.30;3.60;;;;;;;23.14;33.71;100918.19;5969468;23;20751;-68
2023/05/11 11:39:53;;;;;;;3.73;3.33;;;;;;;23.13;33.85;100911.00;5973558;23;20478;-68
2023/05/11 11:42:40;;;;;;;3.90;3.50;;;;;;;23.26;33.98;100921.41;5974407;23;20422;-66
2023/05/11 11:45:29;;;;;;;4.57;3.60;;;;;;;23.20;33.98;100919.78;5974543;23;20510;-68
2023/05/11 11:48:21;;;;;;;7.97;4.23;;;;;;;23.39;33.93;100918.81;5992517;23;20970;-68
2023/05/11 11:51:02;;;;;;;3.43;3.13;;;;;;;23.33;34.56;100919.97;5974098;24;20692;-67
2023/05/11 11:54:08;;;;;;;3.40;3.10;;;;;;;23.13;35.29;100924.81;5972719;23;20444;-67
2023/05/11 11:56:39;;;;;;;6.10;4.33;;;;;;;22.99;35.46;100932.88;5974537;23;20406;-68
2023/05/11 11:59:12;;;;;;;3.93;3.63;;;;;;;22.84;35.86;100931.03;5975985;23;20917;-68
2023/05/11 12:01:44;;;;;;;8.30;3.50;;;;;;;22.74;36.11;100924.72;5968323;24;20476;-67
2023/05/11 12:04:30;;;;;;;3.67;3.37;;;;;;;22.83;35.82;100937.63;5968123;23;20477;-66
2023/05/11 12:07:00;;;;;;;6.17;3.97;;;;;;;22.62;35.50;100927.75;5968225;23;20406;-67